Time;durP1;ratioP1;P1;durP2;ratioP2;P2;SDS_P1;SDS_P2;PMS_P1;PMS_P2;Temp;Humidity;BMP_temperature;BMP_pressure;BME280_temperature;BME280_humidity;BME280_pressure;Samples;Min_cycle;Max_cycle;Signal;HPM_P1;HPM_P2
2021/04/10 00:00:35;;;;;;;5.00;2.47;;;10.10;44.10;;;;;;5033250;28;20599;-85
2021/04/10 00:03:01;;;;;;;7.87;2.70;;;10.10;44.10;;;;;;5019802;28;20068;-85
2021/04/10 00:05:28;;;;;;;6.87;3.10;;;10.20;44.10;;;;;;5028382;28;20026;-85
2021/04/10 00:07:54;;;;;;;8.80;2.50;;;10.10;44.00;;;;;;5023046;28;20132;-85
2021/04/10 00:10:22;;;;;;;5.33;2.13;;;10.00;44.10;;;;;;5030973;28;20038;-85
2021/04/10 00:12:48;;;;;;;6.53;2.40;;;9.80;44.50;;;;;;5033655;28;20420;-85
2021/04/10 00:15:16;;;;;;;7.80;3.13;;;9.90;44.90;;;;;;5028510;28;20033;-85
2021/04/10 00:17:42;;;;;;;7.87;2.40;;;9.90;45.00;;;;;;5027824;28;20034;-85
2021/04/10 00:20:13;;;;;;;8.70;2.70;;;9.70;45.30;;;;;;5030821;28;20030;-86
2021/04/10 00:22:39;;;;;;;5.53;2.40;;;9.60;45.30;;;;;;5043502;28;20037;-85
2021/04/10 00:25:07;;;;;;;8.53;2.50;;;9.60;45.20;;;;;;5025834;28;20026;-85
2021/04/10 00:27:33;;;;;;;5.00;2.10;;;9.60;45.10;;;;;;5025867;28;20038;-85
2021/04/10 00:29:59;;;;;;;6.63;2.57;;;9.60;45.40;;;;;;5013991;28;20026;-86
2021/04/10 00:32:24;;;;;;;4.17;2.53;;;9.60;45.30;;;;;;5019027;28;20030;-86
2021/04/10 00:34:50;;;;;;;7.73;2.50;;;9.60;45.40;;;;;;5017499;28;20033;-86
2021/04/10 00:37:16;;;;;;;4.93;2.20;;;9.60;45.20;;;;;;5023836;28;20033;-85
2021/04/10 00:39:41;;;;;;;4.37;2.27;;;9.60;45.60;;;;;;5025275;28;20126;-85
2021/04/10 00:42:08;;;;;;;6.93;2.63;;;9.60;45.20;;;;;;5028693;28;20120;-85
2021/04/10 00:44:34;;;;;;;9.77;2.93;;;9.60;45.20;;;;;;5035044;28;20504;-85
2021/04/10 00:47:00;;;;;;;6.83;2.50;;;9.60;45.20;;;;;;5025603;28;20120;-85
2021/04/10 00:49:26;;;;;;;6.67;2.77;;;9.50;45.20;;;;;;5018826;28;20034;-86
2021/04/10 00:51:51;;;;;;;8.40;3.27;;;9.40;45.80;;;;;;5022710;28;20041;-85
2021/04/10 00:54:18;;;;;;;7.27;2.30;;;9.30;46.00;;;;;;5030838;28;20025;-85
2021/04/10 00:56:44;;;;;;;7.50;2.67;;;9.20;46.30;;;;;;5029139;28;20037;-85
2021/04/10 00:59:09;;;;;;;7.17;2.13;;;9.20;46.40;;;;;;5031784;28;20087;-85
2021/04/10 01:01:36;;;;;;;9.03;2.43;;;9.20;46.30;;;;;;5024772;28;20481;-85
2021/04/10 01:04:02;;;;;;;5.57;2.70;;;9.20;46.30;;;;;;5026448;28;20075;-85
2021/04/10 01:06:28;;;;;;;4.33;2.20;;;9.20;46.40;;;;;;5031884;28;20029;-85
2021/04/10 01:08:54;;;;;;;5.03;2.53;;;9.10;46.40;;;;;;5031596;28;20059;-84
2021/04/10 01:11:48;;;;;;;8.87;2.63;;;9.00;46.60;;;;;;5024103;28;20057;-85
2021/04/10 01:14:34;;;;;;;6.83;2.70;;;9.00;46.90;;;;;;5026767;28;20056;-85
2021/04/10 01:17:22;;;;;;;4.87;2.10;;;9.10;46.70;;;;;;5035850;28;20038;-85
2021/04/10 01:20:10;;;;;;;3.77;2.03;;;9.20;46.90;;;;;;5028057;28;20042;-85
2021/04/10 01:22:45;;;;;;;5.87;2.63;;;9.10;47.00;;;;;;5029294;28;20034;-85
2021/04/10 01:25:31;;;;;;;10.27;2.93;;;9.10;47.00;;;;;;5023246;28;20068;-85
2021/04/10 01:28:01;;;;;;;8.87;2.80;;;9.00;47.00;;;;;;5035205;28;20033;-85
2021/04/10 01:30:33;;;;;;;4.50;2.20;;;9.00;47.10;;;;;;5034354;28;20053;-85
2021/04/10 01:33:03;;;;;;;5.03;2.28;;;8.90;46.90;;;;;;5034987;28;20033;-85
2021/04/10 01:35:34;;;;;;;9.00;2.57;;;8.90;47.20;;;;;;5031357;28;20440;-85
2021/04/10 01:38:03;;;;;;;8.57;2.93;;;8.80;47.20;;;;;;5030644;28;20037;-85
2021/04/10 01:40:33;;;;;;;11.67;3.40;;;8.80;47.20;;;;;;5035833;28;20026;-85
2021/04/10 01:43:00;;;;;;;8.03;2.43;;;8.90;47.30;;;;;;5033535;28;20022;-85
2021/04/10 01:45:27;;;;;;;9.87;2.83;;;8.80;47.20;;;;;;5034971;28;20029;-85
2021/04/10 01:47:58;;;;;;;6.50;3.10;;;8.70;47.50;;;;;;5027764;28;20026;-85
2021/04/10 01:50:25;;;;;;;8.70;3.10;;;8.90;47.50;;;;;;5035521;28;20025;-85
2021/04/10 01:52:52;;;;;;;7.07;2.90;;;9.00;47.30;;;;;;5034617;28;20036;-85
2021/04/10 01:55:18;;;;;;;13.60;3.80;;;9.20;47.00;;;;;;5034250;28;20022;-85
2021/04/10 01:57:44;;;;;;;7.67;3.10;;;9.40;46.30;;;;;;5027089;28;20036;-85
2021/04/10 02:00:11;;;;;;;8.57;2.50;;;9.50;46.00;;;;;;5028397;28;20021;-85
2021/04/10 02:02:41;;;;;;;5.60;2.50;;;9.50;46.00;;;;;;5033191;28;20033;-85
2021/04/10 02:05:17;;;;;;;5.03;3.00;;;9.60;46.00;;;;;;5034127;28;20512;-85
2021/04/10 02:07:46;;;;;;;4.03;2.60;;;9.60;45.90;;;;;;5034081;28;20049;-85
2021/04/10 02:10:17;;;;;;;8.73;3.17;;;9.70;45.70;;;;;;5035301;28;20017;-86
2021/04/10 02:12:46;;;;;;;9.07;3.70;;;9.60;46.00;;;;;;5024126;28;20459;-85
2021/04/10 02:15:13;;;;;;;7.57;3.37;;;9.60;45.70;;;;;;5031480;28;20032;-85
2021/04/10 02:17:39;;;;;;;7.70;3.67;;;9.60;45.80;;;;;;5033710;28;20435;-85
2021/04/10 02:20:11;;;;;;;6.97;3.10;;;9.70;45.90;;;;;;5031625;28;20037;-86
2021/04/10 02:22:38;;;;;;;6.17;2.93;;;9.80;45.40;;;;;;5027159;28;20444;-85
2021/04/10 02:25:06;;;;;;;6.83;3.20;;;9.80;45.20;;;;;;5032541;28;20053;-86
2021/04/10 02:27:31;;;;;;;8.10;3.27;;;9.80;45.20;;;;;;5028715;28;20021;-86
2021/04/10 02:29:59;;;;;;;6.50;3.50;;;9.80;44.90;;;;;;5027404;28;20117;-86
2021/04/10 02:32:34;;;;;;;11.93;3.47;;;9.80;44.90;;;;;;5032297;28;20056;-86
2021/04/10 02:35:03;;;;;;;6.97;2.90;;;9.80;45.00;;;;;;5032756;28;20061;-85
2021/04/10 02:37:31;;;;;;;11.77;3.23;;;9.90;44.90;;;;;;5027594;28;20025;-86
2021/04/10 02:39:59;;;;;;;8.17;3.07;;;10.00;45.00;;;;;;5033719;28;20032;-85
2021/04/10 02:42:28;;;;;;;4.70;2.60;;;9.90;44.90;;;;;;5033349;28;20030;-85
2021/04/10 02:44:57;;;;;;;6.07;3.37;;;9.90;45.30;;;;;;5035347;28;20124;-85
2021/04/10 02:47:25;;;;;;;6.53;3.27;;;9.90;45.20;;;;;;5032883;28;20121;-85
2021/04/10 02:49:53;;;;;;;7.47;3.50;;;9.90;45.10;;;;;;5033021;28;20072;-85
2021/04/10 02:52:41;;;;;;;8.00;3.57;;;9.80;45.20;;;;;;5032894;28;20354;-86
2021/04/10 02:55:09;;;;;;;5.87;3.10;;;10.00;45.40;;;;;;5028179;28;20097;-85
2021/04/10 02:57:36;;;;;;;7.83;3.10;;;9.90;45.00;;;;;;5034300;28;20060;-85
2021/04/10 03:00:06;;;;;;;4.33;2.40;;;9.90;45.10;;;;;;5033302;28;20108;-85
2021/04/10 03:02:35;;;;;;;7.40;3.10;;;9.70;45.50;;;;;;5033543;28;20496;-85
2021/04/10 03:05:01;;;;;;;5.97;2.67;;;9.50;45.90;;;;;;5033988;28;20047;-85
2021/04/10 03:07:27;;;;;;;7.43;3.57;;;9.50;46.10;;;;;;5032618;28;20631;-85
2021/04/10 03:09:53;;;;;;;5.07;2.53;;;9.50;45.90;;;;;;5033516;28;20021;-85
2021/04/10 03:12:20;;;;;;;5.17;2.60;;;9.50;45.90;;;;;;5033437;28;20381;-85
2021/04/10 03:14:47;;;;;;;7.20;2.50;;;9.30;46.10;;;;;;5017948;28;20534;-86
2021/04/10 03:17:21;;;;;;;6.43;2.80;;;9.40;46.40;;;;;;5014491;28;20021;-86
2021/04/10 03:19:49;;;;;;;7.00;3.40;;;9.10;46.70;;;;;;5026103;28;20497;-85
2021/04/10 03:22:15;;;;;;;5.40;2.80;;;9.00;47.10;;;;;;5018360;28;20052;-85
2021/04/10 03:24:42;;;;;;;5.87;2.83;;;9.00;47.40;;;;;;5026685;28;20088;-85
2021/04/10 03:27:09;;;;;;;7.20;2.93;;;8.80;47.40;;;;;;5027819;28;20026;-85
2021/04/10 03:29:35;;;;;;;4.20;2.30;;;8.80;47.70;;;;;;5022875;28;20389;-85
2021/04/10 03:32:02;;;;;;;9.07;3.40;;;9.10;47.80;;;;;;5033181;28;20069;-85
2021/04/10 03:34:28;;;;;;;7.67;2.77;;;9.20;47.00;;;;;;5031343;28;20373;-85
2021/04/10 03:36:55;;;;;;;5.73;2.90;;;9.20;46.60;;;;;;5033047;28;20037;-85
2021/04/10 03:39:22;;;;;;;6.63;2.70;;;9.00;47.00;;;;;;5032466;28;20040;-85
2021/04/10 03:41:48;;;;;;;6.77;3.60;;;8.90;47.10;;;;;;5032762;28;20393;-85
2021/04/10 03:44:13;;;;;;;18.17;3.70;;;8.70;47.50;;;;;;5032277;28;20084;-85
2021/04/10 03:46:39;;;;;;;5.40;3.33;;;8.60;47.80;;;;;;5030343;28;20025;-85
2021/04/10 03:49:06;;;;;;;10.23;3.27;;;8.60;48.20;;;;;;5032536;28;20467;-85
2021/04/10 03:51:32;;;;;;;7.17;2.70;;;8.60;48.20;;;;;;5032268;28;20018;-85
2021/04/10 03:53:59;;;;;;;7.97;3.27;;;8.70;48.50;;;;;;5026098;28;20059;-86
2021/04/10 03:56:24;;;;;;;7.10;2.63;;;8.60;48.30;;;;;;5019310;28;20029;-85
2021/04/10 03:58:50;;;;;;;7.23;2.77;;;8.70;48.50;;;;;;5013972;28;20026;-85
2021/04/10 04:01:16;;;;;;;4.80;2.97;;;8.60;48.50;;;;;;5016668;28;20493;-85
2021/04/10 04:03:42;;;;;;;6.93;2.87;;;8.40;48.60;;;;;;5032162;28;20179;-85
2021/04/10 04:06:07;;;;;;;29.07;12.67;;;8.50;48.70;;;;;;5031120;28;20026;-86
2021/04/10 04:08:33;;;;;;;9.37;4.00;;;8.50;48.60;;;;;;5024834;28;20160;-85
2021/04/10 04:10:59;;;;;;;11.03;3.60;;;8.50;48.50;;;;;;5032295;28;20469;-85
2021/04/10 04:13:25;;;;;;;8.27;3.10;;;8.50;48.60;;;;;;5026900;28;20021;-85
2021/04/10 04:15:50;;;;;;;6.70;3.20;;;8.50;48.50;;;;;;5031686;28;20036;-85
2021/04/10 04:18:16;;;;;;;8.90;3.20;;;8.40;48.60;;;;;;5033090;28;20104;-85
2021/04/10 04:20:42;;;;;;;8.70;3.47;;;8.40;48.90;;;;;;5019652;28;20029;-86
2021/04/10 04:23:07;;;;;;;8.00;2.63;;;8.40;48.70;;;;;;5029692;28;20037;-85
2021/04/10 04:25:33;;;;;;;8.93;3.83;;;8.40;49.00;;;;;;5032004;28;20033;-85
2021/04/10 04:28:00;;;;;;;9.33;2.80;;;8.40;49.00;;;;;;5032955;28;20108;-85
2021/04/10 04:30:26;;;;;;;10.10;3.27;;;8.50;48.90;;;;;;5025565;28;20021;-85
2021/04/10 04:32:52;;;;;;;7.93;3.23;;;8.70;48.70;;;;;;5032064;28;20031;-85
2021/04/10 04:35:18;;;;;;;9.00;3.17;;;8.60;48.30;;;;;;5030444;28;20041;-85
2021/04/10 04:37:43;;;;;;;8.53;3.53;;;8.80;48.30;;;;;;5033042;28;20021;-85
2021/04/10 04:40:11;;;;;;;8.27;3.67;;;8.70;48.20;;;;;;5024436;28;20385;-85
2021/04/10 04:42:37;;;;;;;10.27;4.47;;;8.70;48.50;;;;;;5031309;28;20060;-85
2021/04/10 04:45:04;;;;;;;10.30;3.90;;;8.70;48.30;;;;;;5031818;28;20025;-85
2021/04/10 04:47:30;;;;;;;9.93;3.13;;;8.70;48.40;;;;;;5025723;28;20405;-85
2021/04/10 04:49:56;;;;;;;9.90;3.70;;;8.70;48.80;;;;;;5027889;28;20036;-85
2021/04/10 04:52:21;;;;;;;4.90;2.70;;;8.80;48.60;;;;;;5026540;28;20129;-85
2021/04/10 04:54:47;;;;;;;12.17;5.37;;;8.70;48.60;;;;;;5031727;28;20841;-85
2021/04/10 04:57:13;;;;;;;17.07;4.20;;;8.80;48.70;;;;;;5023867;28;20028;-85
2021/04/10 04:59:38;;;;;;;6.63;3.30;;;9.00;48.50;;;;;;5026022;28;20112;-85
2021/04/10 05:02:04;;;;;;;11.40;3.10;;;9.00;48.10;;;;;;5026948;28;20033;-85
2021/04/10 05:04:30;;;;;;;9.27;3.50;;;8.80;48.50;;;;;;5030770;28;20041;-85
2021/04/10 05:06:55;;;;;;;5.53;2.63;;;8.80;48.70;;;;;;5031467;28;20040;-85
2021/04/10 05:09:21;;;;;;;6.73;3.60;;;8.70;48.70;;;;;;5031294;28;20025;-85
2021/04/10 05:11:47;;;;;;;7.10;2.87;;;8.70;49.20;;;;;;5031501;28;20060;-85
2021/04/10 05:14:13;;;;;;;11.10;3.97;;;8.60;49.20;;;;;;5028313;28;20022;-85
2021/04/10 05:16:38;;;;;;;12.57;3.80;;;8.80;49.00;;;;;;5030206;28;20413;-85
2021/04/10 05:19:04;;;;;;;9.43;3.83;;;8.90;48.50;;;;;;5031457;28;20026;-85
2021/04/10 05:21:30;;;;;;;7.53;3.00;;;8.90;48.40;;;;;;5030937;28;20037;-85
2021/04/10 05:23:56;;;;;;;7.40;3.10;;;8.90;48.70;;;;;;5030779;28;20036;-85
2021/04/10 05:26:21;;;;;;;7.13;3.33;;;8.80;48.60;;;;;;5028723;28;20058;-85
2021/04/10 05:28:47;;;;;;;10.77;4.07;;;8.80;48.90;;;;;;5031852;28;20025;-85
2021/04/10 05:31:13;;;;;;;14.47;5.53;;;8.90;49.10;;;;;;5030744;28;20021;-85
2021/04/10 05:33:39;;;;;;;11.83;5.17;;;8.90;48.90;;;;;;5030208;28;21718;-85
2021/04/10 05:36:05;;;;;;;6.67;3.57;;;9.00;48.90;;;;;;5029658;28;20034;-85
2021/04/10 05:38:31;;;;;;;8.77;3.97;;;9.10;48.70;;;;;;5037550;28;20437;-85
2021/04/10 05:40:56;;;;;;;10.97;4.70;;;9.30;48.40;;;;;;5016106;28;20026;-85
2021/04/10 05:43:23;;;;;;;12.00;4.60;;;9.50;48.00;;;;;;5023949;28;20057;-85
2021/04/10 05:45:48;;;;;;;10.67;4.83;;;9.60;47.70;;;;;;5030612;28;20021;-85
2021/04/10 05:48:14;;;;;;;7.63;4.17;;;9.50;47.70;;;;;;5029546;28;20087;-85
2021/04/10 05:50:40;;;;;;;15.27;7.07;;;9.60;47.90;;;;;;5030112;28;20431;-85
2021/04/10 05:53:06;;;;;;;19.07;11.27;;;9.50;48.00;;;;;;5027332;28;20030;-85
2021/04/10 05:55:32;;;;;;;10.97;5.57;;;9.60;48.10;;;;;;5036509;28;20481;-85
2021/04/10 05:57:58;;;;;;;14.37;6.00;;;9.60;48.00;;;;;;5028976;28;20094;-85
2021/04/10 06:00:24;;;;;;;15.03;4.67;;;9.80;47.80;;;;;;5035667;28;20013;-85
2021/04/10 06:02:54;;;;;;;18.20;9.20;;;9.90;47.80;;;;;;5034843;28;20029;-85
2021/04/10 06:05:21;;;;;;;8.17;4.17;;;10.00;47.80;;;;;;5033660;28;20104;-85
2021/04/10 06:07:48;;;;;;;13.20;4.30;;;10.00;47.40;;;;;;5035276;28;20029;-85
2021/04/10 06:10:19;;;;;;;6.50;3.57;;;10.10;47.30;;;;;;5028076;28;20026;-85
2021/04/10 06:12:47;;;;;;;9.17;4.73;;;10.00;47.50;;;;;;5019783;28;20094;-85
2021/04/10 06:15:19;;;;;;;10.90;4.20;;;10.20;47.30;;;;;;5032115;28;20021;-85
2021/04/10 06:17:46;;;;;;;10.27;4.43;;;10.20;46.90;;;;;;5034550;28;20030;-85
2021/04/10 06:20:13;;;;;;;8.47;4.17;;;10.30;46.70;;;;;;5035372;28;20280;-85
2021/04/10 06:22:39;;;;;;;6.90;3.20;;;10.30;46.30;;;;;;5028220;28;20032;-85
2021/04/10 06:25:07;;;;;;;9.47;4.20;;;10.40;46.20;;;;;;5033685;28;20033;-85
2021/04/10 06:27:34;;;;;;;8.13;4.20;;;10.60;46.10;;;;;;5034275;28;20029;-85
2021/04/10 06:30:00;;;;;;;9.53;3.57;;;10.70;45.50;;;;;;5031817;28;20450;-85
2021/04/10 06:32:25;;;;;;;12.53;4.83;;;10.70;45.40;;;;;;5032995;28;20112;-85
2021/04/10 06:34:51;;;;;;;7.80;4.07;;;10.70;45.20;;;;;;5027145;28;20050;-85
2021/04/10 06:37:17;;;;;;;8.63;4.13;;;10.70;45.10;;;;;;5020761;28;20080;-85
2021/04/10 06:39:43;;;;;;;8.43;4.17;;;10.80;45.10;;;;;;5030467;28;20034;-85
2021/04/10 06:42:09;;;;;;;7.93;4.27;;;10.90;44.90;;;;;;5031403;28;20032;-85
2021/04/10 06:44:35;;;;;;;10.27;4.27;;;10.90;44.50;;;;;;5046944;28;20033;-85
2021/04/10 06:47:03;;;;;;;10.13;4.40;;;10.90;44.40;;;;;;5028233;28;20029;-85
2021/04/10 06:49:32;;;;;;;12.73;5.10;;;10.80;44.40;;;;;;5033711;28;20119;-85
2021/04/10 06:51:58;;;;;;;9.53;4.13;;;10.80;44.20;;;;;;5033086;28;20615;-85
2021/04/10 06:54:31;;;;;;;12.30;4.60;;;10.90;44.30;;;;;;5022361;28;20381;-86
2021/04/10 06:57:03;;;;;;;10.10;3.88;;;10.90;43.90;;;;;;5027550;28;20041;-83
2021/04/10 06:59:42;;;;;;;7.80;4.10;;;10.90;43.80;;;;;;5024911;28;20578;-83
2021/04/10 07:02:11;;;;;;;8.07;4.13;;;11.00;43.80;;;;;;5017927;28;20037;-83
2021/04/10 07:04:39;;;;;;;8.40;4.77;;;11.00;43.60;;;;;;5032374;28;20033;-84
2021/04/10 07:07:05;;;;;;;9.90;4.40;;;11.00;43.60;;;;;;5032647;28;20029;-83
2021/04/10 07:09:34;;;;;;;9.97;4.63;;;11.10;43.60;;;;;;5032399;28;20033;-84
2021/04/10 07:12:03;;;;;;;10.23;4.13;;;11.10;44.00;;;;;;5034043;28;20495;-84
2021/04/10 07:14:29;;;;;;;8.43;4.63;;;11.20;43.50;;;;;;5022425;28;20762;-84
2021/04/10 07:16:57;;;;;;;8.80;4.07;;;11.30;43.20;;;;;;5032565;28;20033;-84
2021/04/10 07:19:25;;;;;;;8.30;4.50;;;11.20;42.90;;;;;;5033963;28;20029;-84
2021/04/10 07:22:12;;;;;;;11.00;5.10;;;11.30;43.00;;;;;;5032082;28;20088;-84
2021/04/10 07:24:45;;;;;;;10.10;4.67;;;11.40;43.00;;;;;;5026999;28;20057;-84
2021/04/10 07:27:20;;;;;;;9.43;4.97;;;11.50;42.90;;;;;;5033025;28;20022;-84
2021/04/10 07:29:53;;;;;;;10.43;4.40;;;11.70;42.70;;;;;;5023305;28;20034;-84
2021/04/10 07:32:28;;;;;;;11.87;4.93;;;11.70;42.50;;;;;;5024036;28;20053;-84
2021/04/10 07:34:55;;;;;;;8.60;4.83;;;11.80;42.30;;;;;;5031038;28;20084;-84
2021/04/10 07:37:39;;;;;;;11.33;5.20;;;11.90;42.40;;;;;;5021699;28;20037;-84
2021/04/10 07:40:09;;;;;;;12.80;5.10;;;12.00;42.30;;;;;;5032140;28;20051;-84
2021/04/10 07:42:38;;;;;;;10.97;4.90;;;12.10;42.30;;;;;;5032197;28;20018;-84
2021/04/10 07:45:05;;;;;;;10.03;5.20;;;12.20;42.20;;;;;;5030017;28;20860;-84
2021/04/10 07:47:38;;;;;;;10.47;4.73;;;12.30;42.00;;;;;;5030405;28;20392;-83
2021/04/10 07:50:21;;;;;;;7.47;4.50;;;12.30;41.90;;;;;;5032894;28;20385;-83
2021/04/10 07:52:47;;;;;;;11.18;4.55;;;12.50;41.90;;;;;;5027916;28;20099;-84
2021/04/10 07:55:52;;;;;;;9.30;4.57;;;12.60;41.80;;;;;;5020962;28;20036;-84
2021/04/10 07:58:24;;;;;;;12.07;5.40;;;12.80;41.60;;;;;;4980233;28;20034;-84
2021/04/10 08:00:52;;;;;;;8.18;4.60;;;13.00;41.50;;;;;;4974450;28;20131;-84
2021/04/10 08:03:38;;;;;;;10.70;4.60;;;13.10;41.40;;;;;;4996833;28;20022;-83
2021/04/10 08:06:07;;;;;;;9.40;4.33;;;13.40;41.20;;;;;;5025065;28;20025;-85
2021/04/10 08:08:48;;;;;;;10.17;4.40;;;13.60;41.10;;;;;;5024766;28;20470;-83
2021/04/10 08:11:15;;;;;;;12.03;4.77;;;13.80;40.60;;;;;;5025497;28;20080;-84
2021/04/10 08:13:54;;;;;;;8.43;4.60;;;13.80;40.40;;;;;;5030935;28;20584;-84
2021/04/10 08:16:21;;;;;;;9.37;4.43;;;13.90;40.30;;;;;;5021261;28;20117;-84
2021/04/10 08:18:55;;;;;;;9.97;4.10;;;14.00;40.10;;;;;;5030397;28;20136;-84
2021/04/10 08:21:31;;;;;;;9.00;4.83;;;14.00;39.70;;;;;;5019247;28;20021;-83
2021/04/10 08:24:01;;;;;;;8.07;4.93;;;14.10;39.50;;;;;;5030107;28;20029;-84
2021/04/10 08:26:28;;;;;;;7.90;4.47;;;14.10;39.20;;;;;;5031517;28;20031;-84
2021/04/10 08:28:54;;;;;;;8.17;4.63;;;14.20;39.30;;;;;;5031551;28;20084;-84
2021/04/10 08:31:20;;;;;;;8.50;4.60;;;14.30;39.00;;;;;;5033498;28;20025;-84
2021/04/10 08:33:46;;;;;;;9.23;4.67;;;14.40;38.70;;;;;;5028214;28;20167;-84
2021/04/10 08:36:13;;;;;;;10.60;4.60;;;14.50;38.30;;;;;;5029065;28;20124;-84
2021/04/10 08:38:41;;;;;;;14.27;4.83;;;14.60;38.20;;;;;;5031293;28;20022;-85
2021/04/10 08:41:10;;;;;;;5.97;4.47;;;14.70;38.00;;;;;;5032418;28;20095;-84
2021/04/10 08:43:48;;;;;;;9.17;4.50;;;14.60;37.80;;;;;;5031564;28;20060;-84
2021/04/10 08:46:17;;;;;;;12.23;4.80;;;14.60;37.60;;;;;;5033238;28;20025;-85
2021/04/10 08:48:44;;;;;;;10.83;4.73;;;14.60;37.70;;;;;;5029471;28;20025;-85
2021/04/10 08:51:14;;;;;;;11.63;4.70;;;14.70;37.80;;;;;;5025321;28;20025;-85
2021/04/10 08:53:46;;;;;;;7.77;4.67;;;14.90;37.50;;;;;;5021576;28;20033;-85
2021/04/10 08:56:17;;;;;;;11.82;4.43;;;14.90;37.10;;;;;;5024308;28;20059;-85
2021/04/10 08:58:43;;;;;;;9.97;4.07;;;15.00;36.90;;;;;;5024960;28;20039;-85
2021/04/10 09:01:29;;;;;;;9.17;4.90;;;15.10;36.60;;;;;;5031318;28;20022;-85
2021/04/10 09:03:55;;;;;;;8.77;4.30;;;15.40;36.50;;;;;;5031543;28;20036;-85
2021/04/10 09:06:30;;;;;;;10.67;4.40;;;15.60;36.40;;;;;;5022870;28;20462;-85
2021/04/10 09:09:12;;;;;;;8.00;4.13;;;15.90;35.80;;;;;;5026915;28;20041;-85
2021/04/10 09:11:49;;;;;;;10.33;4.37;;;15.90;35.30;;;;;;5030663;28;20029;-85
2021/04/10 09:14:42;;;;;;;7.63;4.30;;;15.90;35.30;;;;;;5031299;28;20071;-84
2021/04/10 09:17:08;;;;;;;9.73;4.47;;;16.10;35.20;;;;;;5030727;28;20029;-85
2021/04/10 09:19:36;;;;;;;5.20;2.83;;;16.20;35.20;;;;;;5032945;28;20025;-84
2021/04/10 09:22:03;;;;;;;7.70;3.80;;;16.40;35.00;;;;;;5026333;28;20431;-85
2021/04/10 09:24:38;;;;;;;8.27;3.73;;;16.60;34.70;;;;;;5032673;28;20037;-85
2021/04/10 09:27:33;;;;;;;5.43;3.30;;;16.70;34.40;;;;;;5029662;28;20033;-85
2021/04/10 09:30:04;;;;;;;7.55;3.70;;;16.80;33.90;;;;;;5013714;28;20030;-84
2021/04/10 09:32:37;;;;;;;7.10;3.65;;;16.90;33.70;;;;;;5035994;28;20025;-84
2021/04/10 09:35:13;;;;;;;8.80;3.88;;;17.00;33.40;;;;;;5030591;28;20777;-84
2021/04/10 09:37:38;;;;;;;10.40;4.05;;;17.10;33.30;;;;;;5031904;28;20109;-84
2021/04/10 09:40:08;;;;;;;5.57;3.05;;;17.30;33.20;;;;;;5030672;28;20120;-85
2021/04/10 09:42:44;;;;;;;5.28;3.40;;;17.30;32.40;;;;;;5033303;28;20542;-84
2021/04/10 09:45:18;;;;;;;7.05;3.50;;;17.40;32.40;;;;;;5023406;28;20056;-84
2021/04/10 09:48:01;;;;;;;9.68;4.45;;;17.40;32.40;;;;;;5025698;28;20036;-85
2021/04/10 09:50:32;;;;;;;4.90;2.97;;;17.50;31.90;;;;;;5025267;28;20028;-84
2021/04/10 09:53:04;;;;;;;9.55;3.47;;;17.60;31.80;;;;;;5029180;28;20436;-85
2021/04/10 09:55:39;;;;;;;6.18;3.40;;;17.70;31.40;;;;;;5042228;28;20026;-85
2021/04/10 09:58:10;;;;;;;9.82;3.65;;;17.80;31.20;;;;;;5033120;28;20029;-84
2021/04/10 10:00:42;;;;;;;8.43;3.55;;;17.90;31.20;;;;;;5035672;28;20109;-84
2021/04/10 10:03:09;;;;;;;6.47;3.07;;;17.90;31.30;;;;;;5032473;28;20026;-85
2021/04/10 10:05:44;;;;;;;11.00;3.03;;;18.00;31.20;;;;;;5015845;28;20026;-85
2021/04/10 10:08:12;;;;;;;7.90;3.28;;;18.10;31.10;;;;;;5033930;28;20075;-85
2021/04/10 10:10:45;;;;;;;7.30;3.28;;;18.30;31.00;;;;;;5035650;28;20473;-85
2021/04/10 10:13:17;;;;;;;7.68;3.95;;;18.30;30.70;;;;;;5029123;28;20021;-85
2021/04/10 10:15:44;;;;;;;7.47;3.63;;;18.40;30.70;;;;;;5025370;28;20025;-85
2021/04/10 10:18:33;;;;;;;6.30;3.40;;;18.50;30.80;;;;;;5023710;28;20080;-85
2021/04/10 10:21:20;;;;;;;7.07;3.20;;;18.60;30.30;;;;;;5031904;28;20113;-85
2021/04/10 10:23:51;;;;;;;11.60;3.75;;;18.60;30.30;;;;;;5031070;28;20033;-85
2021/04/10 10:26:17;;;;;;;7.10;3.58;;;18.60;30.60;;;;;;5032919;28;20389;-85
2021/04/10 10:28:49;;;;;;;8.48;3.97;;;18.50;30.40;;;;;;5035019;28;20103;-85
2021/04/10 10:31:23;;;;;;;10.50;3.40;;;18.40;30.30;;;;;;5031647;28;20075;-85
2021/04/10 10:33:49;;;;;;;10.63;4.15;;;18.50;30.20;;;;;;5030779;28;20040;-85
2021/04/10 10:36:16;;;;;;;7.32;3.58;;;18.50;30.30;;;;;;5032999;28;20049;-84
2021/04/10 10:38:49;;;;;;;7.80;3.00;;;18.70;30.20;;;;;;5031401;28;20481;-85
2021/04/10 10:41:16;;;;;;;;;;;18.70;29.80;;;;;;5032736;28;20488;-85
2021/04/10 10:43:43;;;;;;;8.80;2.70;;;18.70;29.90;;;;;;5039749;28;19905;-85
2021/04/10 10:46:21;;;;;;;7.25;3.28;;;18.70;29.80;;;;;;5027246;28;20021;-85
2021/04/10 10:48:50;;;;;;;5.70;2.88;;;18.80;29.40;;;;;;5032970;28;20053;-85
2021/04/10 10:51:22;;;;;;;6.15;3.13;;;18.80;29.90;;;;;;5032635;28;20029;-85
2021/04/10 10:53:48;;;;;;;5.95;3.13;;;19.10;30.00;;;;;;5031042;28;20026;-85
2021/04/10 10:56:15;;;;;;;7.30;3.28;;;19.30;29.60;;;;;;5031600;28;20102;-85
2021/04/10 10:58:53;;;;;;;14.93;2.90;;;19.40;29.40;;;;;;5033399;28;20042;-85
2021/04/10 11:01:23;;;;;;;6.50;3.00;;;19.60;29.30;;;;;;5030388;28;20025;-87
2021/04/10 11:03:59;;;;;;;11.35;3.05;;;19.70;29.50;;;;;;5032978;28;20091;-86
2021/04/10 11:06:28;;;;;;;6.75;2.88;;;19.80;29.10;;;;;;5032910;28;20025;-85
2021/04/10 11:08:55;;;;;;;5.47;2.58;;;19.90;29.30;;;;;;5023173;28;20026;-85
2021/04/10 11:11:25;;;;;;;7.22;3.28;;;20.00;29.20;;;;;;5032235;28;20029;-86
2021/04/10 11:13:51;;;;;;;6.95;2.60;;;20.00;29.40;;;;;;5032247;28;20728;-86
2021/04/10 11:16:17;;;;;;;10.02;3.08;;;20.10;29.70;;;;;;5033107;28;20057;-85
2021/04/10 11:18:43;;;;;;;4.95;2.90;;;20.20;29.80;;;;;;5031415;28;20033;-85
2021/04/10 11:21:17;;;;;;;6.00;2.50;;;20.30;29.80;;;;;;5032569;28;20103;-85
2021/04/10 11:23:55;;;;;;;5.10;2.63;;;20.50;29.60;;;;;;5033174;28;20044;-86
2021/04/10 11:26:40;;;;;;;8.52;3.10;;;20.60;29.20;;;;;;5031543;28;20044;-85
2021/04/10 11:29:21;;;;;;;6.75;3.00;;;20.60;29.40;;;;;;5025097;28;20029;-85
2021/04/10 11:32:05;;;;;;;7.57;2.22;;;20.70;29.50;;;;;;5028433;28;20029;-86
2021/04/10 11:34:32;;;;;;;8.82;3.00;;;20.80;29.30;;;;;;5044308;28;20488;-85
2021/04/10 11:36:58;;;;;;;5.35;2.58;;;20.90;29.20;;;;;;5024564;28;20413;-86
2021/04/10 11:39:25;;;;;;;4.70;2.30;;;21.00;29.30;;;;;;5032631;28;20025;-85
2021/04/10 11:41:51;;;;;;;7.78;2.58;;;21.00;29.20;;;;;;5029996;28;20044;-86
2021/04/10 11:44:18;;;;;;;4.53;2.58;;;21.10;29.20;;;;;;5036788;28;20104;-85
2021/04/10 11:46:44;;;;;;;8.20;3.05;;;21.10;29.10;;;;;;5033241;28;20052;-86
2021/04/10 11:49:23;;;;;;;6.28;2.92;;;21.20;28.50;;;;;;5026440;28;20393;-86
2021/04/10 11:51:50;;;;;;;6.10;3.10;;;21.10;27.70;;;;;;5026742;28;20100;-86
2021/04/10 11:54:32;;;;;;;9.18;3.42;;;20.90;27.70;;;;;;5026963;28;20152;-86
2021/04/10 11:56:58;;;;;;;7.90;3.05;;;20.80;27.40;;;;;;5022285;28;20029;-86
2021/04/10 11:59:35;;;;;;;7.35;3.13;;;20.70;27.40;;;;;;5017136;28;20428;-85
2021/04/10 12:02:05;;;;;;;7.03;2.88;;;20.50;27.10;;;;;;5022882;28;20030;-86
2021/04/10 12:04:37;;;;;;;7.72;3.10;;;20.50;27.30;;;;;;5025236;28;20497;-86
2021/04/10 12:07:08;;;;;;;5.35;2.95;;;20.70;27.50;;;;;;5020306;28;20026;-85
2021/04/10 12:09:41;;;;;;;7.25;3.30;;;20.70;27.40;;;;;;5025109;28;20056;-85
2021/04/10 12:12:08;;;;;;;7.25;3.28;;;20.60;27.30;;;;;;5021234;28;20025;-85
2021/04/10 12:14:36;;;;;;;7.57;2.78;;;20.70;27.30;;;;;;5024362;28;20063;-85
2021/04/10 12:17:02;;;;;;;5.72;2.80;;;20.70;27.30;;;;;;5023728;28;20060;-85
2021/04/10 12:19:27;;;;;;;4.97;3.10;;;20.70;27.20;;;;;;5031382;28;20048;-84
2021/04/10 12:21:54;;;;;;;6.60;3.17;;;20.70;27.20;;;;;;5026887;28;20033;-85
2021/04/10 12:24:19;;;;;;;5.55;2.75;;;20.70;27.10;;;;;;5024057;28;20032;-85
2021/04/10 12:26:46;;;;;;;10.18;3.10;;;20.80;27.20;;;;;;5027177;28;20025;-86
2021/04/10 12:29:12;;;;;;;11.63;2.88;;;20.90;27.10;;;;;;5028635;28;20033;-85
2021/04/10 12:31:38;;;;;;;5.68;3.00;;;20.80;27.40;;;;;;5025161;28;20416;-85
2021/04/10 12:34:04;;;;;;;7.82;2.92;;;20.90;27.60;;;;;;5028259;28;20029;-85
2021/04/10 12:36:31;;;;;;;6.15;2.80;;;20.90;27.60;;;;;;5021780;28;20049;-86
2021/04/10 12:38:57;;;;;;;7.07;2.83;;;20.90;27.60;;;;;;5018228;28;20424;-85
2021/04/10 12:41:23;;;;;;;7.00;2.85;;;20.90;27.50;;;;;;5025399;28;20066;-85
2021/04/10 12:43:49;;;;;;;8.73;2.90;;;20.90;27.40;;;;;;5026464;28;20446;-85
2021/04/10 12:46:16;;;;;;;8.90;3.13;;;20.90;27.50;;;;;;5025514;28;20021;-85
2021/04/10 12:48:42;;;;;;;3.67;2.17;;;21.00;27.60;;;;;;5036656;28;20046;-85
2021/04/10 12:51:08;;;;;;;6.32;3.05;;;21.00;27.50;;;;;;5028940;28;20022;-85
2021/04/10 12:53:34;;;;;;;10.15;2.83;;;20.80;27.50;;;;;;5022672;28;20462;-85
2021/04/10 12:56:00;;;;;;;5.50;2.10;;;20.80;27.50;;;;;;5031834;28;20052;-85
2021/04/10 12:58:26;;;;;;;7.47;3.30;;;20.70;27.50;;;;;;5019749;28;20057;-85
2021/04/10 13:00:52;;;;;;;6.65;2.33;;;20.90;27.60;;;;;;5023926;28;20056;-85